sensor_id;sensor_type;location;lat;lon;timestamp;P1;durP1;ratioP1;P2;durP2;ratioP2
39020;SDS011;25188;51.958;5.842;2023-02-28T00:02:22;7.57;;;2.40;;
39020;SDS011;25188;51.958;5.842;2023-02-28T00:04:47;5.10;;;2.00;;
39020;SDS011;25188;51.958;5.842;2023-02-28T00:07:17;5.93;;;1.80;;
39020;SDS011;25188;51.958;5.842;2023-02-28T00:09:44;4.33;;;1.80;;
39020;SDS011;25188;51.958;5.842;2023-02-28T00:12:09;7.70;;;2.13;;
39020;SDS011;25188;51.958;5.842;2023-02-28T00:14:40;5.73;;;1.90;;
39020;SDS011;25188;51.958;5.842;2023-02-28T00:17:05;5.03;;;2.10;;
39020;SDS011;25188;51.958;5.842;2023-02-28T00:19:31;5.53;;;2.00;;
39020;SDS011;25188;51.958;5.842;2023-02-28T00:21:56;4.40;;;1.83;;
39020;SDS011;25188;51.958;5.842;2023-02-28T00:24:22;5.87;;;1.73;;
39020;SDS011;25188;51.958;5.842;2023-02-28T00:26:48;5.50;;;2.13;;
39020;SDS011;25188;51.958;5.842;2023-02-28T00:29:13;5.40;;;2.47;;
39020;SDS011;25188;51.958;5.842;2023-02-28T00:31:39;5.43;;;2.20;;
39020;SDS011;25188;51.958;5.842;2023-02-28T00:34:04;6.23;;;2.20;;
39020;SDS011;25188;51.958;5.842;2023-02-28T00:36:30;4.17;;;1.70;;
39020;SDS011;25188;51.958;5.842;2023-02-28T00:38:56;6.23;;;2.13;;
39020;SDS011;25188;51.958;5.842;2023-02-28T00:41:21;9.17;;;2.23;;
39020;SDS011;25188;51.958;5.842;2023-02-28T00:43:47;5.60;;;2.23;;
39020;SDS011;25188;51.958;5.842;2023-02-28T00:46:12;3.97;;;1.80;;
39020;SDS011;25188;51.958;5.842;2023-02-28T00:48:38;7.10;;;1.90;;
39020;SDS011;25188;51.958;5.842;2023-02-28T00:51:04;5.30;;;1.80;;
39020;SDS011;25188;51.958;5.842;2023-02-28T00:53:30;7.73;;;1.73;;
39020;SDS011;25188;51.958;5.842;2023-02-28T00:55:57;5.17;;;2.03;;
39020;SDS011;25188;51.958;5.842;2023-02-28T00:58:23;6.97;;;2.33;;
39020;SDS011;25188;51.958;5.842;2023-02-28T01:00:49;6.40;;;2.67;;
39020;SDS011;25188;51.958;5.842;2023-02-28T01:03:16;8.30;;;2.20;;
39020;SDS011;25188;51.958;5.842;2023-02-28T01:05:43;7.20;;;2.10;;
39020;SDS011;25188;51.958;5.842;2023-02-28T01:08:09;7.00;;;2.40;;
39020;SDS011;25188;51.958;5.842;2023-02-28T01:10:35;5.30;;;2.03;;
39020;SDS011;25188;51.958;5.842;2023-02-28T01:13:02;6.93;;;2.67;;
39020;SDS011;25188;51.958;5.842;2023-02-28T01:15:28;4.93;;;2.57;;
39020;SDS011;25188;51.958;5.842;2023-02-28T01:17:53;7.20;;;2.90;;
39020;SDS011;25188;51.958;5.842;2023-02-28T01:20:19;7.00;;;2.53;;
39020;SDS011;25188;51.958;5.842;2023-02-28T01:22:45;6.90;;;2.93;;
39020;SDS011;25188;51.958;5.842;2023-02-28T01:25:11;6.33;;;2.47;;
39020;SDS011;25188;51.958;5.842;2023-02-28T01:27:37;6.87;;;2.27;;
39020;SDS011;25188;51.958;5.842;2023-02-28T01:30:04;6.60;;;2.33;;
39020;SDS011;25188;51.958;5.842;2023-02-28T01:32:31;4.57;;;1.97;;
39020;SDS011;25188;51.958;5.842;2023-02-28T01:34:57;5.97;;;2.83;;
39020;SDS011;25188;51.958;5.842;2023-02-28T01:37:22;6.60;;;2.27;;
39020;SDS011;25188;51.958;5.842;2023-02-28T01:39:48;7.97;;;2.63;;
39020;SDS011;25188;51.958;5.842;2023-02-28T01:42:14;5.30;;;2.57;;
39020;SDS011;25188;51.958;5.842;2023-02-28T01:47:32;6.30;;;2.20;;
39020;SDS011;25188;51.958;5.842;2023-02-28T01:50:06;7.53;;;2.73;;
39020;SDS011;25188;51.958;5.842;2023-02-28T01:52:34;7.53;;;1.87;;
39020;SDS011;25188;51.958;5.842;2023-02-28T01:55:01;5.90;;;2.37;;
39020;SDS011;25188;51.958;5.842;2023-02-28T01:57:30;5.37;;;2.37;;
39020;SDS011;25188;51.958;5.842;2023-02-28T02:00:24;7.17;;;2.63;;
39020;SDS011;25188;51.958;5.842;2023-02-28T02:02:53;7.23;;;2.77;;
39020;SDS011;25188;51.958;5.842;2023-02-28T02:05:21;7.03;;;2.57;;
39020;SDS011;25188;51.958;5.842;2023-02-28T02:07:51;7.57;;;2.80;;
39020;SDS011;25188;51.958;5.842;2023-02-28T02:10:42;7.67;;;2.50;;
39020;SDS011;25188;51.958;5.842;2023-02-28T02:18:48;4.47;;;1.97;;
39020;SDS011;25188;51.958;5.842;2023-02-28T02:37:53;6.20;;;2.50;;
39020;SDS011;25188;51.958;5.842;2023-02-28T02:43:16;5.97;;;2.10;;
39020;SDS011;25188;51.958;5.842;2023-02-28T02:45:51;6.30;;;2.00;;
39020;SDS011;25188;51.958;5.842;2023-02-28T02:48:27;5.80;;;1.77;;
39020;SDS011;25188;51.958;5.842;2023-02-28T02:50:57;4.90;;;2.17;;
39020;SDS011;25188;51.958;5.842;2023-02-28T02:53:36;5.03;;;2.33;;
39020;SDS011;25188;51.958;5.842;2023-02-28T02:56:06;6.43;;;1.90;;
39020;SDS011;25188;51.958;5.842;2023-02-28T02:58:34;5.93;;;2.50;;
39020;SDS011;25188;51.958;5.842;2023-02-28T03:01:07;4.03;;;1.80;;
39020;SDS011;25188;51.958;5.842;2023-02-28T03:03:35;7.40;;;2.33;;
39020;SDS011;25188;51.958;5.842;2023-02-28T03:06:01;6.17;;;2.13;;
39020;SDS011;25188;51.958;5.842;2023-02-28T03:08:28;5.10;;;2.30;;
39020;SDS011;25188;51.958;5.842;2023-02-28T03:11:02;5.47;;;2.10;;
39020;SDS011;25188;51.958;5.842;2023-02-28T03:32:50;4.07;;;1.77;;
39020;SDS011;25188;51.958;5.842;2023-02-28T03:35:32;5.80;;;1.80;;
39020;SDS011;25188;51.958;5.842;2023-02-28T03:41:06;4.20;;;1.70;;
39020;SDS011;25188;51.958;5.842;2023-02-28T03:43:42;4.77;;;2.20;;
39020;SDS011;25188;51.958;5.842;2023-02-28T03:46:12;9.27;;;2.40;;
39020;SDS011;25188;51.958;5.842;2023-02-28T03:48:43;4.83;;;2.23;;
39020;SDS011;25188;51.958;5.842;2023-02-28T03:51:15;4.80;;;1.70;;
39020;SDS011;25188;51.958;5.842;2023-02-28T03:53:44;6.77;;;2.40;;
39020;SDS011;25188;51.958;5.842;2023-02-28T03:56:26;6.53;;;2.07;;
39020;SDS011;25188;51.958;5.842;2023-02-28T03:59:04;4.85;;;2.20;;
39020;SDS011;25188;51.958;5.842;2023-02-28T04:01:47;5.27;;;1.73;;
39020;SDS011;25188;51.958;5.842;2023-02-28T04:04:13;3.00;;;1.53;;
39020;SDS011;25188;51.958;5.842;2023-02-28T04:06:40;4.07;;;1.80;;
39020;SDS011;25188;51.958;5.842;2023-02-28T04:09:09;3.87;;;1.27;;
39020;SDS011;25188;51.958;5.842;2023-02-28T04:11:36;7.60;;;2.13;;
39020;SDS011;25188;51.958;5.842;2023-02-28T04:14:03;4.23;;;1.30;;
39020;SDS011;25188;51.958;5.842;2023-02-28T04:16:30;6.23;;;1.10;;
39020;SDS011;25188;51.958;5.842;2023-02-28T04:18:57;5.10;;;1.50;;
39020;SDS011;25188;51.958;5.842;2023-02-28T04:21:31;3.50;;;1.20;;
39020;SDS011;25188;51.958;5.842;2023-02-28T04:24:01;3.53;;;1.10;;
39020;SDS011;25188;51.958;5.842;2023-02-28T04:26:31;3.43;;;0.80;;
39020;SDS011;25188;51.958;5.842;2023-02-28T04:28:59;1.90;;;0.83;;
39020;SDS011;25188;51.958;5.842;2023-02-28T04:31:25;2.97;;;0.80;;
39020;SDS011;25188;51.958;5.842;2023-02-28T04:33:51;4.07;;;0.90;;
39020;SDS011;25188;51.958;5.842;2023-02-28T04:36:17;3.13;;;0.73;;
39020;SDS011;25188;51.958;5.842;2023-02-28T04:38:43;2.43;;;0.80;;
39020;SDS011;25188;51.958;5.842;2023-02-28T04:41:10;3.20;;;0.70;;
39020;SDS011;25188;51.958;5.842;2023-02-28T04:43:36;2.07;;;0.70;;
39020;SDS011;25188;51.958;5.842;2023-02-28T04:46:03;2.73;;;0.90;;
39020;SDS011;25188;51.958;5.842;2023-02-28T04:48:30;3.20;;;0.60;;
39020;SDS011;25188;51.958;5.842;2023-02-28T04:51:01;2.77;;;0.80;;
39020;SDS011;25188;51.958;5.842;2023-02-28T04:53:29;1.37;;;0.63;;
39020;SDS011;25188;51.958;5.842;2023-02-28T04:55:55;4.87;;;1.10;;
39020;SDS011;25188;51.958;5.842;2023-02-28T04:58:21;3.83;;;0.80;;
39020;SDS011;25188;51.958;5.842;2023-02-28T05:00:49;2.87;;;1.00;;
39020;SDS011;25188;51.958;5.842;2023-02-28T05:03:15;3.00;;;1.00;;
39020;SDS011;25188;51.958;5.842;2023-02-28T05:05:41;2.83;;;1.10;;
39020;SDS011;25188;51.958;5.842;2023-02-28T05:08:06;3.00;;;0.90;;
39020;SDS011;25188;51.958;5.842;2023-02-28T05:10:32;2.93;;;1.07;;
39020;SDS011;25188;51.958;5.842;2023-02-28T05:12:58;3.47;;;1.50;;
39020;SDS011;25188;51.958;5.842;2023-02-28T05:15:23;3.03;;;0.90;;
39020;SDS011;25188;51.958;5.842;2023-02-28T05:17:49;3.97;;;1.10;;
39020;SDS011;25188;51.958;5.842;2023-02-28T05:20:15;1.87;;;0.77;;
39020;SDS011;25188;51.958;5.842;2023-02-28T05:22:41;2.87;;;0.93;;
39020;SDS011;25188;51.958;5.842;2023-02-28T05:25:18;3.03;;;0.90;;
39020;SDS011;25188;51.958;5.842;2023-02-28T05:27:46;2.53;;;0.90;;
39020;SDS011;25188;51.958;5.842;2023-02-28T05:30:12;2.40;;;0.80;;
39020;SDS011;25188;51.958;5.842;2023-02-28T05:32:39;4.10;;;1.23;;
39020;SDS011;25188;51.958;5.842;2023-02-28T05:35:08;2.60;;;0.77;;
39020;SDS011;25188;51.958;5.842;2023-02-28T05:37:38;3.20;;;1.00;;
39020;SDS011;25188;51.958;5.842;2023-02-28T05:40:04;2.43;;;0.80;;
39020;SDS011;25188;51.958;5.842;2023-02-28T05:42:32;3.60;;;0.90;;
39020;SDS011;25188;51.958;5.842;2023-02-28T05:44:58;2.43;;;0.80;;
39020;SDS011;25188;51.958;5.842;2023-02-28T05:47:24;3.00;;;1.00;;
39020;SDS011;25188;51.958;5.842;2023-02-28T05:49:50;3.10;;;1.17;;
39020;SDS011;25188;51.958;5.842;2023-02-28T05:52:15;2.27;;;0.77;;
39020;SDS011;25188;51.958;5.842;2023-02-28T05:54:41;4.30;;;1.10;;
39020;SDS011;25188;51.958;5.842;2023-02-28T05:57:07;3.23;;;1.00;;
39020;SDS011;25188;51.958;5.842;2023-02-28T05:59:32;2.93;;;1.10;;
39020;SDS011;25188;51.958;5.842;2023-02-28T06:01:58;9.23;;;1.50;;
39020;SDS011;25188;51.958;5.842;2023-02-28T06:04:24;7.63;;;1.43;;
39020;SDS011;25188;51.958;5.842;2023-02-28T06:06:49;4.13;;;1.40;;
39020;SDS011;25188;51.958;5.842;2023-02-28T06:09:16;5.97;;;1.80;;
39020;SDS011;25188;51.958;5.842;2023-02-28T06:11:42;6.80;;;1.23;;
39020;SDS011;25188;51.958;5.842;2023-02-28T06:14:12;3.50;;;1.10;;
39020;SDS011;25188;51.958;5.842;2023-02-28T06:16:43;3.13;;;1.10;;
39020;SDS011;25188;51.958;5.842;2023-02-28T06:19:09;2.07;;;0.80;;
39020;SDS011;25188;51.958;5.842;2023-02-28T06:21:35;4.50;;;2.03;;
39020;SDS011;25188;51.958;5.842;2023-02-28T06:24:01;2.67;;;0.90;;
39020;SDS011;25188;51.958;5.842;2023-02-28T06:26:28;2.47;;;0.90;;
39020;SDS011;25188;51.958;5.842;2023-02-28T06:28:54;2.73;;;1.13;;
39020;SDS011;25188;51.958;5.842;2023-02-28T06:31:20;2.50;;;0.90;;
39020;SDS011;25188;51.958;5.842;2023-02-28T06:33:47;3.30;;;1.10;;
39020;SDS011;25188;51.958;5.842;2023-02-28T06:36:13;2.27;;;0.83;;
39020;SDS011;25188;51.958;5.842;2023-02-28T06:38:40;3.40;;;1.00;;
39020;SDS011;25188;51.958;5.842;2023-02-28T06:41:07;4.13;;;1.27;;
39020;SDS011;25188;51.958;5.842;2023-02-28T06:43:38;5.30;;;1.00;;
39020;SDS011;25188;51.958;5.842;2023-02-28T06:46:06;2.77;;;0.90;;
39020;SDS011;25188;51.958;5.842;2023-02-28T06:48:34;2.67;;;1.20;;
39020;SDS011;25188;51.958;5.842;2023-02-28T06:51:04;3.73;;;1.00;;
39020;SDS011;25188;51.958;5.842;2023-02-28T06:53:31;5.00;;;1.07;;
39020;SDS011;25188;51.958;5.842;2023-02-28T06:55:57;3.10;;;0.90;;
39020;SDS011;25188;51.958;5.842;2023-02-28T06:58:23;2.83;;;0.93;;
39020;SDS011;25188;51.958;5.842;2023-02-28T07:00:52;3.10;;;1.43;;
39020;SDS011;25188;51.958;5.842;2023-02-28T07:03:18;3.53;;;1.27;;
39020;SDS011;25188;51.958;5.842;2023-02-28T07:05:44;2.90;;;1.00;;
39020;SDS011;25188;51.958;5.842;2023-02-28T07:08:10;2.73;;;1.00;;
39020;SDS011;25188;51.958;5.842;2023-02-28T07:10:39;5.87;;;1.30;;
39020;SDS011;25188;51.958;5.842;2023-02-28T07:13:05;3.63;;;1.13;;
39020;SDS011;25188;51.958;5.842;2023-02-28T07:15:32;6.27;;;1.30;;
39020;SDS011;25188;51.958;5.842;2023-02-28T07:17:58;4.27;;;1.00;;
39020;SDS011;25188;51.958;5.842;2023-02-28T07:20:24;4.07;;;1.00;;
39020;SDS011;25188;51.958;5.842;2023-02-28T07:22:50;2.93;;;1.10;;
39020;SDS011;25188;51.958;5.842;2023-02-28T07:25:27;2.63;;;1.00;;
39020;SDS011;25188;51.958;5.842;2023-02-28T07:27:54;3.93;;;1.00;;
39020;SDS011;25188;51.958;5.842;2023-02-28T07:30:20;7.33;;;1.33;;
39020;SDS011;25188;51.958;5.842;2023-02-28T07:32:46;4.60;;;1.20;;
39020;SDS011;25188;51.958;5.842;2023-02-28T07:35:12;6.00;;;1.20;;
39020;SDS011;25188;51.958;5.842;2023-02-28T07:37:40;3.00;;;1.03;;
39020;SDS011;25188;51.958;5.842;2023-02-28T07:40:07;2.73;;;1.00;;
39020;SDS011;25188;51.958;5.842;2023-02-28T07:42:36;4.20;;;1.37;;
39020;SDS011;25188;51.958;5.842;2023-02-28T07:45:03;4.43;;;1.53;;
39020;SDS011;25188;51.958;5.842;2023-02-28T07:47:29;3.40;;;1.10;;
39020;SDS011;25188;51.958;5.842;2023-02-28T07:49:56;3.70;;;1.60;;
39020;SDS011;25188;51.958;5.842;2023-02-28T07:52:22;3.80;;;1.23;;
39020;SDS011;25188;51.958;5.842;2023-02-28T07:54:49;4.23;;;1.20;;
39020;SDS011;25188;51.958;5.842;2023-02-28T07:57:15;4.27;;;1.40;;
39020;SDS011;25188;51.958;5.842;2023-02-28T07:59:41;2.60;;;1.00;;
39020;SDS011;25188;51.958;5.842;2023-02-28T08:02:09;4.17;;;1.17;;
39020;SDS011;25188;51.958;5.842;2023-02-28T08:04:43;4.13;;;1.60;;
39020;SDS011;25188;51.958;5.842;2023-02-28T08:07:09;6.47;;;1.43;;
39020;SDS011;25188;51.958;5.842;2023-02-28T08:09:38;4.67;;;1.27;;
39020;SDS011;25188;51.958;5.842;2023-02-28T08:12:05;3.47;;;1.30;;
39020;SDS011;25188;51.958;5.842;2023-02-28T08:14:31;2.97;;;1.37;;
39020;SDS011;25188;51.958;5.842;2023-02-28T08:16:57;4.90;;;1.80;;
39020;SDS011;25188;51.958;5.842;2023-02-28T08:19:23;5.37;;;1.40;;
39020;SDS011;25188;51.958;5.842;2023-02-28T08:21:48;4.17;;;1.37;;
39020;SDS011;25188;51.958;5.842;2023-02-28T08:24:14;2.50;;;1.30;;
39020;SDS011;25188;51.958;5.842;2023-02-28T08:26:40;4.57;;;1.60;;
39020;SDS011;25188;51.958;5.842;2023-02-28T08:29:05;4.07;;;1.57;;
39020;SDS011;25188;51.958;5.842;2023-02-28T08:31:31;3.70;;;1.23;;
39020;SDS011;25188;51.958;5.842;2023-02-28T08:33:57;5.23;;;1.43;;
39020;SDS011;25188;51.958;5.842;2023-02-28T08:36:24;2.53;;;1.30;;
39020;SDS011;25188;51.958;5.842;2023-02-28T08:38:50;3.73;;;1.30;;
39020;SDS011;25188;51.958;5.842;2023-02-28T08:41:15;2.60;;;1.00;;
39020;SDS011;25188;51.958;5.842;2023-02-28T08:43:41;2.70;;;0.90;;
39020;SDS011;25188;51.958;5.842;2023-02-28T08:46:08;2.90;;;1.00;;
39020;SDS011;25188;51.958;5.842;2023-02-28T08:48:36;5.17;;;0.93;;
39020;SDS011;25188;51.958;5.842;2023-02-28T08:51:07;2.47;;;0.80;;
39020;SDS011;25188;51.958;5.842;2023-02-28T08:53:38;2.27;;;0.93;;
39020;SDS011;25188;51.958;5.842;2023-02-28T08:56:05;2.33;;;0.90;;
39020;SDS011;25188;51.958;5.842;2023-02-28T08:58:36;1.67;;;0.80;;
39020;SDS011;25188;51.958;5.842;2023-02-28T09:01:09;2.93;;;0.80;;
39020;SDS011;25188;51.958;5.842;2023-02-28T09:03:37;2.20;;;1.00;;
39020;SDS011;25188;51.958;5.842;2023-02-28T09:06:03;2.70;;;0.90;;
39020;SDS011;25188;51.958;5.842;2023-02-28T09:08:29;2.77;;;0.80;;
39020;SDS011;25188;51.958;5.842;2023-02-28T09:10:56;4.07;;;1.13;;
39020;SDS011;25188;51.958;5.842;2023-02-28T09:13:23;3.20;;;1.00;;
39020;SDS011;25188;51.958;5.842;2023-02-28T09:15:50;2.73;;;0.80;;
39020;SDS011;25188;51.958;5.842;2023-02-28T09:18:16;2.23;;;0.93;;
39020;SDS011;25188;51.958;5.842;2023-02-28T09:20:42;3.03;;;0.97;;
39020;SDS011;25188;51.958;5.842;2023-02-28T09:23:08;2.33;;;0.73;;
39020;SDS011;25188;51.958;5.842;2023-02-28T09:25:35;2.97;;;0.80;;
39020;SDS011;25188;51.958;5.842;2023-02-28T09:28:01;2.80;;;0.90;;
39020;SDS011;25188;51.958;5.842;2023-02-28T09:30:27;3.23;;;0.80;;
39020;SDS011;25188;51.958;5.842;2023-02-28T09:32:53;1.67;;;0.70;;
39020;SDS011;25188;51.958;5.842;2023-02-28T09:35:20;2.80;;;0.87;;
39020;SDS011;25188;51.958;5.842;2023-02-28T09:37:47;2.37;;;0.83;;
39020;SDS011;25188;51.958;5.842;2023-02-28T09:40:13;1.87;;;0.70;;
39020;SDS011;25188;51.958;5.842;2023-02-28T09:42:43;1.70;;;0.70;;
39020;SDS011;25188;51.958;5.842;2023-02-28T09:45:28;2.93;;;0.77;;
39020;SDS011;25188;51.958;5.842;2023-02-28T09:48:06;2.10;;;0.80;;
39020;SDS011;25188;51.958;5.842;2023-02-28T09:50:38;1.97;;;0.80;;
39020;SDS011;25188;51.958;5.842;2023-02-28T09:55:58;3.13;;;0.80;;
39020;SDS011;25188;51.958;5.842;2023-02-28T09:58:40;1.50;;;0.77;;
39020;SDS011;25188;51.958;5.842;2023-02-28T10:06:51;2.83;;;1.00;;
39020;SDS011;25188;51.958;5.842;2023-02-28T10:09:25;2.20;;;0.90;;
39020;SDS011;25188;51.958;5.842;2023-02-28T10:11:57;1.63;;;0.70;;
39020;SDS011;25188;51.958;5.842;2023-02-28T10:14:28;3.30;;;1.00;;
39020;SDS011;25188;51.958;5.842;2023-02-28T10:22:19;2.20;;;0.60;;
39020;SDS011;25188;51.958;5.842;2023-02-28T10:24:50;1.60;;;0.57;;
39020;SDS011;25188;51.958;5.842;2023-02-28T10:27:21;2.20;;;0.80;;
39020;SDS011;25188;51.958;5.842;2023-02-28T10:29:54;2.10;;;0.47;;
39020;SDS011;25188;51.958;5.842;2023-02-28T10:32:39;2.17;;;0.55;;
39020;SDS011;25188;51.958;5.842;2023-02-28T10:37:37;1.10;;;0.40;;
39020;SDS011;25188;51.958;5.842;2023-02-28T10:40:04;1.25;;;0.40;;
39020;SDS011;25188;51.958;5.842;2023-02-28T10:42:31;2.15;;;0.30;;
39020;SDS011;25188;51.958;5.842;2023-02-28T10:45:10;0.98;;;0.40;;
39020;SDS011;25188;51.958;5.842;2023-02-28T10:47:41;1.50;;;0.50;;
39020;SDS011;25188;51.958;5.842;2023-02-28T10:50:27;0.80;;;0.40;;
39020;SDS011;25188;51.958;5.842;2023-02-28T10:53:00;1.00;;;0.40;;
39020;SDS011;25188;51.958;5.842;2023-02-28T10:55:33;1.15;;;0.40;;
39020;SDS011;25188;51.958;5.842;2023-02-28T10:57:59;1.50;;;0.50;;
39020;SDS011;25188;51.958;5.842;2023-02-28T11:00:25;1.80;;;0.40;;
39020;SDS011;25188;51.958;5.842;2023-02-28T11:02:56;1.15;;;0.45;;
39020;SDS011;25188;51.958;5.842;2023-02-28T11:05:29;1.17;;;0.50;;
39020;SDS011;25188;51.958;5.842;2023-02-28T11:10:43;1.95;;;0.40;;
39020;SDS011;25188;51.958;5.842;2023-02-28T11:13:19;2.30;;;0.70;;
39020;SDS011;25188;51.958;5.842;2023-02-28T11:15:55;0.95;;;0.40;;
39020;SDS011;25188;51.958;5.842;2023-02-28T11:18:27;0.90;;;0.40;;
39020;SDS011;25188;51.958;5.842;2023-02-28T11:24:00;2.03;;;0.50;;
39020;SDS011;25188;51.958;5.842;2023-02-28T11:29:11;1.65;;;0.43;;
39020;SDS011;25188;51.958;5.842;2023-02-28T11:34:41;1.53;;;0.50;;
39020;SDS011;25188;51.958;5.842;2023-02-28T11:37:18;1.67;;;0.55;;
39020;SDS011;25188;51.958;5.842;2023-02-28T11:39:44;1.92;;;0.50;;
39020;SDS011;25188;51.958;5.842;2023-02-28T11:45:35;1.35;;;0.50;;
39020;SDS011;25188;51.958;5.842;2023-02-28T12:05:00;1.27;;;0.50;;
39020;SDS011;25188;51.958;5.842;2023-02-28T12:15:32;1.95;;;0.57;;
39020;SDS011;25188;51.958;5.842;2023-02-28T12:21:00;2.05;;;0.50;;
39020;SDS011;25188;51.958;5.842;2023-02-28T12:23:40;2.13;;;0.68;;
39020;SDS011;25188;51.958;5.842;2023-02-28T12:31:59;2.00;;;0.63;;
39020;SDS011;25188;51.958;5.842;2023-02-28T12:34:31;5.10;;;0.70;;
39020;SDS011;25188;51.958;5.842;2023-02-28T12:37:24;2.78;;;0.50;;
39020;SDS011;25188;51.958;5.842;2023-02-28T12:40:01;1.63;;;0.50;;
39020;SDS011;25188;51.958;5.842;2023-02-28T12:42:34;1.10;;;0.50;;
39020;SDS011;25188;51.958;5.842;2023-02-28T12:45:05;3.22;;;0.70;;
39020;SDS011;25188;51.958;5.842;2023-02-28T13:06:20;2.28;;;0.80;;
39020;SDS011;25188;51.958;5.842;2023-02-28T13:11:43;1.92;;;0.55;;
39020;SDS011;25188;51.958;5.842;2023-02-28T13:14:19;1.38;;;0.50;;
39020;SDS011;25188;51.958;5.842;2023-02-28T13:19:17;1.58;;;0.50;;
39020;SDS011;25188;51.958;5.842;2023-02-28T13:21:44;1.67;;;0.50;;
39020;SDS011;25188;51.958;5.842;2023-02-28T13:24:11;1.00;;;0.50;;
39020;SDS011;25188;51.958;5.842;2023-02-28T13:29:29;1.63;;;0.50;;
39020;SDS011;25188;51.958;5.842;2023-02-28T13:34:33;3.20;;;0.50;;
39020;SDS011;25188;51.958;5.842;2023-02-28T13:39:51;1.10;;;0.52;;
39020;SDS011;25188;51.958;5.842;2023-02-28T13:47:38;1.30;;;0.60;;
39020;SDS011;25188;51.958;5.842;2023-02-28T13:52:53;1.00;;;0.50;;
39020;SDS011;25188;51.958;5.842;2023-02-28T13:55:27;1.92;;;0.68;;
39020;SDS011;25188;51.958;5.842;2023-02-28T14:11:43;1.42;;;0.60;;
39020;SDS011;25188;51.958;5.842;2023-02-28T14:14:53;1.30;;;0.75;;
39020;SDS011;25188;51.958;5.842;2023-02-28T14:16:56;1.70;;;0.52;;
39020;SDS011;25188;51.958;5.842;2023-02-28T14:19:24;1.77;;;0.60;;
39020;SDS011;25188;51.958;5.842;2023-02-28T14:22:01;2.08;;;0.60;;
39020;SDS011;25188;51.958;5.842;2023-02-28T14:36:16;2.60;;;0.77;;
39020;SDS011;25188;51.958;5.842;2023-02-28T14:41:32;1.38;;;0.70;;
39020;SDS011;25188;51.958;5.842;2023-02-28T14:44:13;2.03;;;0.60;;
39020;SDS011;25188;51.958;5.842;2023-02-28T14:46:42;2.08;;;1.08;;
39020;SDS011;25188;51.958;5.842;2023-02-28T14:49:15;2.35;;;0.60;;
39020;SDS011;25188;51.958;5.842;2023-02-28T14:51:46;2.17;;;0.75;;
39020;SDS011;25188;51.958;5.842;2023-02-28T14:54:15;2.38;;;0.63;;
39020;SDS011;25188;51.958;5.842;2023-02-28T14:56:44;2.08;;;0.60;;
39020;SDS011;25188;51.958;5.842;2023-02-28T14:59:22;2.53;;;0.60;;
39020;SDS011;25188;51.958;5.842;2023-02-28T15:04:52;1.95;;;0.60;;
39020;SDS011;25188;51.958;5.842;2023-02-28T15:07:23;1.90;;;0.80;;
39020;SDS011;25188;51.958;5.842;2023-02-28T15:15:41;2.00;;;0.73;;
39020;SDS011;25188;51.958;5.842;2023-02-28T15:18:14;2.03;;;0.80;;
39020;SDS011;25188;51.958;5.842;2023-02-28T15:20:51;3.45;;;0.88;;
39020;SDS011;25188;51.958;5.842;2023-02-28T15:23:18;1.60;;;0.70;;
39020;SDS011;25188;51.958;5.842;2023-02-28T15:25:46;2.67;;;0.70;;
39020;SDS011;25188;51.958;5.842;2023-02-28T15:28:14;1.95;;;0.70;;
39020;SDS011;25188;51.958;5.842;2023-02-28T15:33:24;1.60;;;0.68;;
39020;SDS011;25188;51.958;5.842;2023-02-28T15:36:13;1.73;;;0.70;;
39020;SDS011;25188;51.958;5.842;2023-02-28T15:38:40;2.00;;;0.80;;
39020;SDS011;25188;51.958;5.842;2023-02-28T15:41:28;2.22;;;0.65;;
39020;SDS011;25188;51.958;5.842;2023-02-28T15:44:14;2.13;;;0.77;;
39020;SDS011;25188;51.958;5.842;2023-02-28T15:46:44;2.15;;;0.60;;
39020;SDS011;25188;51.958;5.842;2023-02-28T15:49:19;2.30;;;0.70;;
39020;SDS011;25188;51.958;5.842;2023-02-28T15:51:48;2.13;;;0.77;;
39020;SDS011;25188;51.958;5.842;2023-02-28T15:54:49;2.92;;;0.70;;
39020;SDS011;25188;51.958;5.842;2023-02-28T15:57:11;2.92;;;0.43;;
39020;SDS011;25188;51.958;5.842;2023-02-28T16:02:17;2.38;;;0.50;;
39020;SDS011;25188;51.958;5.842;2023-02-28T16:04:55;3.58;;;0.75;;
39020;SDS011;25188;51.958;5.842;2023-02-28T16:07:22;1.63;;;0.60;;
39020;SDS011;25188;51.958;5.842;2023-02-28T16:09:49;2.97;;;0.60;;
39020;SDS011;25188;51.958;5.842;2023-02-28T16:12:15;2.60;;;0.80;;
39020;SDS011;25188;51.958;5.842;2023-02-28T16:14:41;1.88;;;0.60;;
39020;SDS011;25188;51.958;5.842;2023-02-28T16:17:09;2.05;;;0.70;;
39020;SDS011;25188;51.958;5.842;2023-02-28T16:19:46;2.95;;;0.80;;
39020;SDS011;25188;51.958;5.842;2023-02-28T16:22:11;2.75;;;0.88;;
39020;SDS011;25188;51.958;5.842;2023-02-28T16:24:37;2.45;;;1.33;;
39020;SDS011;25188;51.958;5.842;2023-02-28T16:27:03;2.63;;;0.60;;
39020;SDS011;25188;51.958;5.842;2023-02-28T16:29:30;2.33;;;0.77;;
39020;SDS011;25188;51.958;5.842;2023-02-28T16:31:59;2.42;;;1.10;;
39020;SDS011;25188;51.958;5.842;2023-02-28T16:34:25;2.72;;;0.90;;
39020;SDS011;25188;51.958;5.842;2023-02-28T16:36:50;2.92;;;1.13;;
39020;SDS011;25188;51.958;5.842;2023-02-28T16:39:16;2.97;;;0.90;;
39020;SDS011;25188;51.958;5.842;2023-02-28T16:41:43;1.88;;;0.75;;
39020;SDS011;25188;51.958;5.842;2023-02-28T16:47:05;4.25;;;1.48;;
39020;SDS011;25188;51.958;5.842;2023-02-28T16:49:31;4.10;;;1.23;;
39020;SDS011;25188;51.958;5.842;2023-02-28T16:51:56;5.17;;;1.10;;
39020;SDS011;25188;51.958;5.842;2023-02-28T16:54:22;2.67;;;1.03;;
39020;SDS011;25188;51.958;5.842;2023-02-28T16:56:48;4.83;;;1.27;;
39020;SDS011;25188;51.958;5.842;2023-02-28T16:59:14;2.67;;;1.07;;
39020;SDS011;25188;51.958;5.842;2023-02-28T17:01:50;4.43;;;1.00;;
39020;SDS011;25188;51.958;5.842;2023-02-28T17:04:16;4.80;;;1.17;;
39020;SDS011;25188;51.958;5.842;2023-02-28T17:06:42;2.90;;;0.93;;
39020;SDS011;25188;51.958;5.842;2023-02-28T17:09:13;4.97;;;1.50;;
39020;SDS011;25188;51.958;5.842;2023-02-28T17:11:43;2.53;;;1.20;;
39020;SDS011;25188;51.958;5.842;2023-02-28T17:14:09;4.90;;;1.17;;
39020;SDS011;25188;51.958;5.842;2023-02-28T17:16:35;3.90;;;1.10;;
39020;SDS011;25188;51.958;5.842;2023-02-28T17:19:05;3.00;;;1.00;;
39020;SDS011;25188;51.958;5.842;2023-02-28T17:21:36;3.30;;;1.20;;
39020;SDS011;25188;51.958;5.842;2023-02-28T17:24:02;3.83;;;1.13;;
39020;SDS011;25188;51.958;5.842;2023-02-28T17:26:29;5.50;;;1.77;;
39020;SDS011;25188;51.958;5.842;2023-02-28T17:28:55;2.53;;;1.10;;
39020;SDS011;25188;51.958;5.842;2023-02-28T17:31:22;3.20;;;1.20;;
39020;SDS011;25188;51.958;5.842;2023-02-28T17:33:49;3.70;;;1.40;;
39020;SDS011;25188;51.958;5.842;2023-02-28T17:36:16;5.87;;;1.43;;
39020;SDS011;25188;51.958;5.842;2023-02-28T17:38:47;2.73;;;1.07;;
39020;SDS011;25188;51.958;5.842;2023-02-28T17:41:13;4.57;;;1.33;;
39020;SDS011;25188;51.958;5.842;2023-02-28T17:43:38;3.70;;;1.93;;
39020;SDS011;25188;51.958;5.842;2023-02-28T17:46:05;4.73;;;2.00;;
39020;SDS011;25188;51.958;5.842;2023-02-28T17:48:36;5.57;;;2.30;;
39020;SDS011;25188;51.958;5.842;2023-02-28T17:51:01;4.80;;;2.23;;
39020;SDS011;25188;51.958;5.842;2023-02-28T17:53:27;4.00;;;1.80;;
39020;SDS011;25188;51.958;5.842;2023-02-28T17:55:53;4.43;;;1.90;;
39020;SDS011;25188;51.958;5.842;2023-02-28T17:58:18;5.50;;;1.73;;
39020;SDS011;25188;51.958;5.842;2023-02-28T18:00:44;3.83;;;1.57;;
39020;SDS011;25188;51.958;5.842;2023-02-28T18:03:11;4.83;;;1.83;;
39020;SDS011;25188;51.958;5.842;2023-02-28T18:05:38;4.80;;;1.37;;
39020;SDS011;25188;51.958;5.842;2023-02-28T18:08:04;4.30;;;1.70;;
39020;SDS011;25188;51.958;5.842;2023-02-28T18:10:29;4.13;;;1.67;;
39020;SDS011;25188;51.958;5.842;2023-02-28T18:12:58;5.30;;;1.50;;
39020;SDS011;25188;51.958;5.842;2023-02-28T18:15:24;4.00;;;1.47;;
39020;SDS011;25188;51.958;5.842;2023-02-28T18:17:49;4.37;;;1.70;;
39020;SDS011;25188;51.958;5.842;2023-02-28T18:20:15;5.90;;;1.70;;